sensor_id;sensor_type;location;lat;lon;timestamp;pressure;altitude;pressure_sealevel;temperature;humidity
19672;BME280;9983;51.114;13.788;2023-07-30T00:00:13;98764.81;;;18.79;100.00
19672;BME280;9983;51.114;13.788;2023-07-30T00:05:13;98765.50;;;19.53;100.00
19672;BME280;9983;51.114;13.788;2023-07-30T00:10:14;98759.66;;;19.83;100.00
19672;BME280;9983;51.114;13.788;2023-07-30T00:15:14;98750.84;;;18.87;100.00
19672;BME280;9983;51.114;13.788;2023-07-30T00:20:14;98743.28;;;19.23;100.00
19672;BME280;9983;51.114;13.788;2023-07-30T00:25:15;98745.22;;;18.77;100.00
19672;BME280;9983;51.114;13.788;2023-07-30T00:30:15;98744.09;;;18.73;100.00
19672;BME280;9983;51.114;13.788;2023-07-30T00:35:15;98749.34;;;19.30;100.00
19672;BME280;9983;51.114;13.788;2023-07-30T00:40:17;98749.84;;;19.27;100.00
19672;BME280;9983;51.114;13.788;2023-07-30T00:45:18;98745.53;;;19.64;100.00
19672;BME280;9983;51.114;13.788;2023-07-30T00:50:18;98747.22;;;19.32;100.00
19672;BME280;9983;51.114;13.788;2023-07-30T00:55:18;98744.06;;;19.40;100.00
19672;BME280;9983;51.114;13.788;2023-07-30T01:00:19;98734.03;;;19.57;100.00
19672;BME280;9983;51.114;13.788;2023-07-30T01:05:19;98734.03;;;19.41;100.00
19672;BME280;9983;51.114;13.788;2023-07-30T01:10:21;98726.06;;;19.73;100.00
19672;BME280;9983;51.114;13.788;2023-07-30T01:15:22;98727.63;;;19.30;100.00
19672;BME280;9983;51.114;13.788;2023-07-30T01:20:23;98729.91;;;19.38;100.00
19672;BME280;9983;51.114;13.788;2023-07-30T01:25:24;98741.25;;;19.35;100.00
19672;BME280;9983;51.114;13.788;2023-07-30T01:30:30;98749.59;;;19.12;100.00
19672;BME280;9983;51.114;13.788;2023-07-30T01:35:32;98758.75;;;19.06;100.00
19672;BME280;9983;51.114;13.788;2023-07-30T01:40:34;98760.72;;;19.27;100.00
19672;BME280;9983;51.114;13.788;2023-07-30T01:45:34;98763.84;;;18.85;100.00
19672;BME280;9983;51.114;13.788;2023-07-30T01:50:35;98764.72;;;18.46;100.00
19672;BME280;9983;51.114;13.788;2023-07-30T01:55:35;98768.22;;;18.58;100.00
19672;BME280;9983;51.114;13.788;2023-07-30T02:00:35;98782.41;;;18.48;100.00
19672;BME280;9983;51.114;13.788;2023-07-30T02:05:35;98786.56;;;19.13;100.00
19672;BME280;9983;51.114;13.788;2023-07-30T02:10:35;98783.28;;;19.11;100.00
19672;BME280;9983;51.114;13.788;2023-07-30T02:15:40;98770.81;;;18.53;100.00
19672;BME280;9983;51.114;13.788;2023-07-30T02:20:40;98773.44;;;18.48;100.00
19672;BME280;9983;51.114;13.788;2023-07-30T02:25:40;98771.41;;;18.27;100.00
19672;BME280;9983;51.114;13.788;2023-07-30T02:30:40;98778.75;;;18.14;100.00
19672;BME280;9983;51.114;13.788;2023-07-30T02:35:43;98771.47;;;18.03;100.00
19672;BME280;9983;51.114;13.788;2023-07-30T02:40:43;98767.69;;;18.16;100.00
19672;BME280;9983;51.114;13.788;2023-07-30T02:45:47;98781.63;;;17.96;100.00
19672;BME280;9983;51.114;13.788;2023-07-30T02:50:47;98782.69;;;18.07;100.00
19672;BME280;9983;51.114;13.788;2023-07-30T02:55:47;98791.34;;;17.69;100.00
19672;BME280;9983;51.114;13.788;2023-07-30T03:00:48;98783.38;;;18.14;100.00
19672;BME280;9983;51.114;13.788;2023-07-30T03:05:48;98787.88;;;18.37;100.00
19672;BME280;9983;51.114;13.788;2023-07-30T03:10:48;98790.31;;;18.22;100.00
19672;BME280;9983;51.114;13.788;2023-07-30T03:15:48;98795.00;;;18.66;100.00
19672;BME280;9983;51.114;13.788;2023-07-30T03:20:49;98781.84;;;18.06;100.00
19672;BME280;9983;51.114;13.788;2023-07-30T03:25:49;98782.38;;;18.60;100.00
19672;BME280;9983;51.114;13.788;2023-07-30T03:30:49;98773.56;;;18.81;100.00
19672;BME280;9983;51.114;13.788;2023-07-30T03:35:50;98768.91;;;18.65;100.00
19672;BME280;9983;51.114;13.788;2023-07-30T03:40:50;98767.06;;;18.82;100.00
19672;BME280;9983;51.114;13.788;2023-07-30T03:45:50;98765.13;;;18.66;100.00
19672;BME280;9983;51.114;13.788;2023-07-30T03:50:52;98791.63;;;18.76;100.00
19672;BME280;9983;51.114;13.788;2023-07-30T03:55:53;98788.22;;;19.14;100.00
19672;BME280;9983;51.114;13.788;2023-07-30T04:00:53;98789.88;;;18.01;100.00
19672;BME280;9983;51.114;13.788;2023-07-30T04:05:54;98794.41;;;18.64;100.00
19672;BME280;9983;51.114;13.788;2023-07-30T04:10:54;98802.03;;;18.95;100.00
19672;BME280;9983;51.114;13.788;2023-07-30T04:15:54;98795.72;;;18.50;100.00
19672;BME280;9983;51.114;13.788;2023-07-30T04:20:55;98801.44;;;18.93;100.00
19672;BME280;9983;51.114;13.788;2023-07-30T04:25:58;98792.25;;;19.28;100.00
19672;BME280;9983;51.114;13.788;2023-07-30T04:30:58;98791.00;;;18.85;100.00
19672;BME280;9983;51.114;13.788;2023-07-30T04:35:59;98786.75;;;19.23;100.00
19672;BME280;9983;51.114;13.788;2023-07-30T04:40:59;98779.97;;;19.42;100.00
19672;BME280;9983;51.114;13.788;2023-07-30T04:45:59;98786.56;;;19.63;100.00
19672;BME280;9983;51.114;13.788;2023-07-30T04:51:00;98792.47;;;19.77;100.00
19672;BME280;9983;51.114;13.788;2023-07-30T04:56:00;98785.06;;;19.72;100.00
19672;BME280;9983;51.114;13.788;2023-07-30T05:01:00;98783.59;;;19.64;100.00
19672;BME280;9983;51.114;13.788;2023-07-30T05:06:00;98788.25;;;19.86;100.00
19672;BME280;9983;51.114;13.788;2023-07-30T05:11:01;98786.75;;;19.56;100.00
19672;BME280;9983;51.114;13.788;2023-07-30T05:16:01;98791.72;;;20.03;100.00
19672;BME280;9983;51.114;13.788;2023-07-30T05:21:01;98785.22;;;20.26;100.00
19672;BME280;9983;51.114;13.788;2023-07-30T05:26:02;98787.38;;;20.45;100.00
19672;BME280;9983;51.114;13.788;2023-07-30T05:31:02;98791.88;;;20.83;100.00
19672;BME280;9983;51.114;13.788;2023-07-30T05:36:02;98799.97;;;21.05;100.00
19672;BME280;9983;51.114;13.788;2023-07-30T05:41:02;98806.16;;;21.23;100.00
19672;BME280;9983;51.114;13.788;2023-07-30T05:46:03;98809.59;;;21.45;100.00
19672;BME280;9983;51.114;13.788;2023-07-30T05:51:03;98820.59;;;21.60;100.00
19672;BME280;9983;51.114;13.788;2023-07-30T05:56:04;98824.47;;;21.64;100.00
19672;BME280;9983;51.114;13.788;2023-07-30T06:01:04;98819.28;;;22.05;100.00
19672;BME280;9983;51.114;13.788;2023-07-30T06:06:04;98821.31;;;21.82;100.00
19672;BME280;9983;51.114;13.788;2023-07-30T06:11:05;98830.31;;;22.25;100.00
19672;BME280;9983;51.114;13.788;2023-07-30T06:16:05;98819.50;;;22.55;100.00
19672;BME280;9983;51.114;13.788;2023-07-30T06:21:05;98832.06;;;22.56;100.00
19672;BME280;9983;51.114;13.788;2023-07-30T06:26:05;98821.81;;;22.99;100.00
19672;BME280;9983;51.114;13.788;2023-07-30T06:31:06;98834.34;;;22.75;100.00
19672;BME280;9983;51.114;13.788;2023-07-30T06:36:06;98839.50;;;22.71;100.00
19672;BME280;9983;51.114;13.788;2023-07-30T06:41:06;98833.25;;;22.86;100.00
19672;BME280;9983;51.114;13.788;2023-07-30T06:46:07;98838.22;;;23.04;100.00
19672;BME280;9983;51.114;13.788;2023-07-30T06:51:10;98850.81;;;23.00;100.00
19672;BME280;9983;51.114;13.788;2023-07-30T06:56:11;98846.44;;;23.19;100.00
19672;BME280;9983;51.114;13.788;2023-07-30T07:01:11;98854.63;;;24.05;100.00
19672;BME280;9983;51.114;13.788;2023-07-30T07:06:11;98855.53;;;22.47;100.00
19672;BME280;9983;51.114;13.788;2023-07-30T07:11:11;98857.19;;;22.48;100.00
19672;BME280;9983;51.114;13.788;2023-07-30T07:16:12;98861.97;;;22.88;100.00
19672;BME280;9983;51.114;13.788;2023-07-30T07:21:12;98872.94;;;22.36;100.00
19672;BME280;9983;51.114;13.788;2023-07-30T07:26:12;98878.34;;;22.21;100.00
19672;BME280;9983;51.114;13.788;2023-07-30T07:31:12;98876.88;;;21.71;100.00
19672;BME280;9983;51.114;13.788;2023-07-30T07:36:13;98878.31;;;22.16;100.00
19672;BME280;9983;51.114;13.788;2023-07-30T07:41:15;98890.84;;;22.12;100.00
19672;BME280;9983;51.114;13.788;2023-07-30T07:46:16;98887.25;;;22.06;100.00
19672;BME280;9983;51.114;13.788;2023-07-30T07:51:16;98885.19;;;22.76;100.00
19672;BME280;9983;51.114;13.788;2023-07-30T07:56:17;98883.59;;;23.05;100.00
19672;BME280;9983;51.114;13.788;2023-07-30T08:01:17;98873.81;;;23.29;100.00
19672;BME280;9983;51.114;13.788;2023-07-30T08:06:17;98866.66;;;23.03;100.00
19672;BME280;9983;51.114;13.788;2023-07-30T08:11:17;98852.44;;;23.11;100.00
19672;BME280;9983;51.114;13.788;2023-07-30T08:16:18;98860.41;;;23.48;100.00
19672;BME280;9983;51.114;13.788;2023-07-30T08:21:18;98860.69;;;23.82;100.00
19672;BME280;9983;51.114;13.788;2023-07-30T08:26:20;98862.91;;;23.75;100.00
19672;BME280;9983;51.114;13.788;2023-07-30T08:31:20;98861.25;;;23.69;100.00
19672;BME280;9983;51.114;13.788;2023-07-30T08:36:20;98864.56;;;23.51;100.00
19672;BME280;9983;51.114;13.788;2023-07-30T08:41:21;98865.56;;;24.15;100.00
19672;BME280;9983;51.114;13.788;2023-07-30T08:46:21;98863.09;;;24.34;99.00
19672;BME280;9983;51.114;13.788;2023-07-30T08:51:22;98848.84;;;24.86;93.90
19672;BME280;9983;51.114;13.788;2023-07-30T08:56:22;98845.81;;;24.34;94.15
19672;BME280;9983;51.114;13.788;2023-07-30T09:01:24;98850.34;;;23.59;92.27
19672;BME280;9983;51.114;13.788;2023-07-30T09:06:26;98849.63;;;24.38;87.57
19672;BME280;9983;51.114;13.788;2023-07-30T09:11:27;98854.41;;;24.76;87.14
19672;BME280;9983;51.114;13.788;2023-07-30T09:16:27;98847.97;;;24.42;87.74
19672;BME280;9983;51.114;13.788;2023-07-30T09:21:32;98842.25;;;24.87;79.48
19672;BME280;9983;51.114;13.788;2023-07-30T09:26:43;98859.38;;;25.86;79.60
19672;BME280;9983;51.114;13.788;2023-07-30T09:31:51;98846.94;;;24.92;78.99
19672;BME280;9983;51.114;13.788;2023-07-30T09:36:54;98856.19;;;26.03;75.96
19672;BME280;9983;51.114;13.788;2023-07-30T09:42:00;98850.97;;;25.05;80.10
19672;BME280;9983;51.114;13.788;2023-07-30T09:47:01;98851.00;;;25.39;75.81
19672;BME280;9983;51.114;13.788;2023-07-30T09:52:05;98860.81;;;25.79;74.19
19672;BME280;9983;51.114;13.788;2023-07-30T09:57:06;98861.06;;;25.48;74.77
19672;BME280;9983;51.114;13.788;2023-07-30T10:02:08;98858.09;;;25.06;75.93
19672;BME280;9983;51.114;13.788;2023-07-30T10:07:17;98865.41;;;24.66;78.79
19672;BME280;9983;51.114;13.788;2023-07-30T10:12:28;98860.34;;;24.99;78.22
19672;BME280;9983;51.114;13.788;2023-07-30T10:17:32;98859.75;;;25.41;75.49
19672;BME280;9983;51.114;13.788;2023-07-30T10:22:32;98859.06;;;25.20;76.72
19672;BME280;9983;51.114;13.788;2023-07-30T10:27:38;98859.84;;;25.30;75.67
19672;BME280;9983;51.114;13.788;2023-07-30T10:32:57;98863.69;;;25.97;72.47
19672;BME280;9983;51.114;13.788;2023-07-30T10:37:57;98856.19;;;26.03;69.46
19672;BME280;9983;51.114;13.788;2023-07-30T10:42:58;98852.94;;;26.01;68.58
19672;BME280;9983;51.114;13.788;2023-07-30T10:48:04;98853.94;;;26.10;67.29
19672;BME280;9983;51.114;13.788;2023-07-30T10:53:07;98851.03;;;26.25;66.93
19672;BME280;9983;51.114;13.788;2023-07-30T10:58:08;98843.00;;;26.05;65.02
19672;BME280;9983;51.114;13.788;2023-07-30T11:03:08;98849.09;;;26.02;65.41
19672;BME280;9983;51.114;13.788;2023-07-30T11:08:09;98839.88;;;27.20;61.77
19672;BME280;9983;51.114;13.788;2023-07-30T11:13:10;98838.66;;;26.94;57.63
19672;BME280;9983;51.114;13.788;2023-07-30T11:18:12;98844.59;;;28.31;53.14
19672;BME280;9983;51.114;13.788;2023-07-30T11:23:23;98843.56;;;28.82;50.46
19672;BME280;9983;51.114;13.788;2023-07-30T11:28:34;98830.09;;;27.47;51.50
19672;BME280;9983;51.114;13.788;2023-07-30T11:33:42;98830.63;;;27.81;51.24
19672;BME280;9983;51.114;13.788;2023-07-30T11:38:44;98818.63;;;28.05;48.18
19672;BME280;9983;51.114;13.788;2023-07-30T11:43:45;98813.28;;;29.04;47.19
19672;BME280;9983;51.114;13.788;2023-07-30T11:48:47;98808.47;;;30.64;42.48
19672;BME280;9983;51.114;13.788;2023-07-30T11:53:58;98810.34;;;30.29;40.81
19672;BME280;9983;51.114;13.788;2023-07-30T11:59:05;98799.06;;;31.60;38.14
19672;BME280;9983;51.114;13.788;2023-07-30T12:04:06;98805.44;;;31.43;38.72
19672;BME280;9983;51.114;13.788;2023-07-30T12:09:14;98800.69;;;31.78;36.27
19672;BME280;9983;51.114;13.788;2023-07-30T12:14:15;98786.09;;;31.90;35.49
19672;BME280;9983;51.114;13.788;2023-07-30T12:19:15;98788.78;;;31.78;35.23
19672;BME280;9983;51.114;13.788;2023-07-30T12:24:15;98773.13;;;33.53;34.38
19672;BME280;9983;51.114;13.788;2023-07-30T12:29:16;98771.78;;;33.05;34.22
19672;BME280;9983;51.114;13.788;2023-07-30T12:34:16;98767.94;;;31.72;35.98
19672;BME280;9983;51.114;13.788;2023-07-30T12:39:16;98775.50;;;31.28;36.12
19672;BME280;9983;51.114;13.788;2023-07-30T12:44:16;98764.72;;;30.66;36.89
19672;BME280;9983;51.114;13.788;2023-07-30T12:49:17;98765.06;;;31.08;36.63
19672;BME280;9983;51.114;13.788;2023-07-30T12:54:18;98768.78;;;30.69;38.31
19672;BME280;9983;51.114;13.788;2023-07-30T12:59:18;98770.53;;;29.37;40.33
19672;BME280;9983;51.114;13.788;2023-07-30T13:04:18;98769.13;;;29.04;41.27
19672;BME280;9983;51.114;13.788;2023-07-30T13:09:19;98768.00;;;31.37;37.25
19672;BME280;9983;51.114;13.788;2023-07-30T13:14:19;98766.66;;;30.57;39.12
19672;BME280;9983;51.114;13.788;2023-07-30T13:19:19;98767.75;;;29.37;39.86
19672;BME280;9983;51.114;13.788;2023-07-30T13:24:19;98773.50;;;28.55;40.45
19672;BME280;9983;51.114;13.788;2023-07-30T13:29:20;98771.81;;;28.95;41.06
19672;BME280;9983;51.114;13.788;2023-07-30T13:34:20;98759.59;;;30.34;39.09
19672;BME280;9983;51.114;13.788;2023-07-30T13:39:20;98747.47;;;30.78;38.74
19672;BME280;9983;51.114;13.788;2023-07-30T13:44:20;98766.81;;;30.04;38.97
19672;BME280;9983;51.114;13.788;2023-07-30T13:49:21;98755.31;;;29.26;39.44
19672;BME280;9983;51.114;13.788;2023-07-30T13:54:21;98742.59;;;30.01;38.89
19672;BME280;9983;51.114;13.788;2023-07-30T13:59:21;98754.84;;;30.26;38.84
19672;BME280;9983;51.114;13.788;2023-07-30T14:04:21;98753.72;;;29.87;39.72
19672;BME280;9983;51.114;13.788;2023-07-30T14:09:22;98756.78;;;29.55;39.56
19672;BME280;9983;51.114;13.788;2023-07-30T14:14:24;98763.84;;;29.38;40.53
19672;BME280;9983;51.114;13.788;2023-07-30T14:19:27;98760.03;;;30.18;38.50
19672;BME280;9983;51.114;13.788;2023-07-30T14:24:29;98768.88;;;30.38;37.92
19672;BME280;9983;51.114;13.788;2023-07-30T14:29:30;98767.31;;;29.44;39.20
19672;BME280;9983;51.114;13.788;2023-07-30T14:34:30;98755.31;;;29.26;40.16
19672;BME280;9983;51.114;13.788;2023-07-30T14:39:30;98761.34;;;28.56;41.77
19672;BME280;9983;51.114;13.788;2023-07-30T14:44:31;98759.31;;;28.98;40.95
19672;BME280;9983;51.114;13.788;2023-07-30T14:49:31;98758.19;;;28.49;42.98
19672;BME280;9983;51.114;13.788;2023-07-30T14:54:32;98754.31;;;28.50;43.13
19672;BME280;9983;51.114;13.788;2023-07-30T14:59:32;98760.84;;;27.72;44.72
19672;BME280;9983;51.114;13.788;2023-07-30T15:04:32;98759.91;;;27.31;48.94
19672;BME280;9983;51.114;13.788;2023-07-30T15:09:32;98776.91;;;26.63;55.76
19672;BME280;9983;51.114;13.788;2023-07-30T15:14:35;98792.22;;;26.69;62.06
19672;BME280;9983;51.114;13.788;2023-07-30T15:19:35;98866.47;;;25.24;79.07
19672;BME280;9983;51.114;13.788;2023-07-30T15:24:35;98919.06;;;22.80;100.00
19672;BME280;9983;51.114;13.788;2023-07-30T15:29:35;98933.69;;;21.79;100.00
19672;BME280;9983;51.114;13.788;2023-07-30T15:34:36;98924.47;;;21.85;100.00
19672;BME280;9983;51.114;13.788;2023-07-30T15:39:36;98918.50;;;21.88;100.00
19672;BME280;9983;51.114;13.788;2023-07-30T15:44:36;98901.47;;;21.76;100.00
19672;BME280;9983;51.114;13.788;2023-07-30T15:49:37;98896.22;;;22.02;100.00
19672;BME280;9983;51.114;13.788;2023-07-30T15:54:37;98895.03;;;22.24;100.00
19672;BME280;9983;51.114;13.788;2023-07-30T15:59:38;98906.03;;;21.98;100.00
19672;BME280;9983;51.114;13.788;2023-07-30T16:04:39;98906.81;;;22.35;100.00
19672;BME280;9983;51.114;13.788;2023-07-30T16:09:39;98887.72;;;22.40;100.00
19672;BME280;9983;51.114;13.788;2023-07-30T16:14:39;98908.06;;;22.69;100.00
19672;BME280;9983;51.114;13.788;2023-07-30T16:19:40;98915.16;;;22.70;100.00
19672;BME280;9983;51.114;13.788;2023-07-30T16:24:40;98922.91;;;22.31;100.00
19672;BME280;9983;51.114;13.788;2023-07-30T16:29:41;98907.63;;;22.83;100.00
19672;BME280;9983;51.114;13.788;2023-07-30T16:34:41;98910.91;;;22.95;100.00
19672;BME280;9983;51.114;13.788;2023-07-30T16:39:41;98906.06;;;23.22;100.00
19672;BME280;9983;51.114;13.788;2023-07-30T16:44:41;98904.19;;;23.33;100.00
19672;BME280;9983;51.114;13.788;2023-07-30T16:49:42;98911.34;;;22.71;100.00
19672;BME280;9983;51.114;13.788;2023-07-30T16:54:42;98928.34;;;22.79;100.00
19672;BME280;9983;51.114;13.788;2023-07-30T16:59:42;98926.69;;;22.78;100.00
19672;BME280;9983;51.114;13.788;2023-07-30T17:04:43;98932.34;;;22.61;100.00
19672;BME280;9983;51.114;13.788;2023-07-30T17:09:43;98941.91;;;22.58;100.00
19672;BME280;9983;51.114;13.788;2023-07-30T17:14:43;98938.81;;;23.02;100.00
19672;BME280;9983;51.114;13.788;2023-07-30T17:19:44;98944.88;;;23.19;100.00
19672;BME280;9983;51.114;13.788;2023-07-30T17:24:44;98968.97;;;23.27;100.00
19672;BME280;9983;51.114;13.788;2023-07-30T17:29:45;98978.25;;;23.16;100.00
19672;BME280;9983;51.114;13.788;2023-07-30T17:34:45;98998.09;;;22.44;100.00
19672;BME280;9983;51.114;13.788;2023-07-30T17:39:45;99006.41;;;22.22;100.00
19672;BME280;9983;51.114;13.788;2023-07-30T17:44:49;99013.06;;;22.37;100.00
19672;BME280;9983;51.114;13.788;2023-07-30T17:49:49;99019.72;;;22.14;100.00
19672;BME280;9983;51.114;13.788;2023-07-30T17:54:49;99032.44;;;22.35;100.00
19672;BME280;9983;51.114;13.788;2023-07-30T17:59:50;99038.00;;;21.59;100.00
19672;BME280;9983;51.114;13.788;2023-07-30T18:04:50;99045.47;;;21.42;100.00
19672;BME280;9983;51.114;13.788;2023-07-30T18:09:50;99068.81;;;22.09;100.00
19672;BME280;9983;51.114;13.788;2023-07-30T18:14:52;99065.75;;;21.30;100.00
19672;BME280;9983;51.114;13.788;2023-07-30T18:19:52;99075.97;;;20.62;100.00
19672;BME280;9983;51.114;13.788;2023-07-30T18:24:52;99083.94;;;21.46;100.00
19672;BME280;9983;51.114;13.788;2023-07-30T18:29:53;99085.19;;;21.60;100.00
19672;BME280;9983;51.114;13.788;2023-07-30T18:34:53;99104.19;;;21.11;100.00
19672;BME280;9983;51.114;13.788;2023-07-30T18:39:53;99107.06;;;21.00;100.00
19672;BME280;9983;51.114;13.788;2023-07-30T18:44:55;99115.47;;;20.15;100.00
19672;BME280;9983;51.114;13.788;2023-07-30T18:49:56;99120.16;;;20.48;100.00
19672;BME280;9983;51.114;13.788;2023-07-30T18:54:56;99120.69;;;19.88;100.00
19672;BME280;9983;51.114;13.788;2023-07-30T18:59:56;99115.31;;;20.21;100.00
19672;BME280;9983;51.114;13.788;2023-07-30T19:04:57;99117.63;;;20.29;100.00
19672;BME280;9983;51.114;13.788;2023-07-30T19:09:57;99112.94;;;19.80;100.00
19672;BME280;9983;51.114;13.788;2023-07-30T19:14:57;99116.47;;;19.80;100.00
19672;BME280;9983;51.114;13.788;2023-07-30T19:19:58;99114.69;;;19.34;100.00
19672;BME280;9983;51.114;13.788;2023-07-30T19:24:58;99125.16;;;19.14;100.00
19672;BME280;9983;51.114;13.788;2023-07-30T19:29:58;99132.16;;;19.90;100.00
19672;BME280;9983;51.114;13.788;2023-07-30T19:34:58;99126.75;;;19.38;100.00
19672;BME280;9983;51.114;13.788;2023-07-30T19:39:59;99134.09;;;19.26;100.00
19672;BME280;9983;51.114;13.788;2023-07-30T19:45:00;99120.50;;;19.38;100.00
19672;BME280;9983;51.114;13.788;2023-07-30T19:50:00;99131.19;;;18.81;100.00
19672;BME280;9983;51.114;13.788;2023-07-30T19:55:01;99129.84;;;19.30;100.00
19672;BME280;9983;51.114;13.788;2023-07-30T20:00:01;99116.34;;;19.35;100.00
19672;BME280;9983;51.114;13.788;2023-07-30T20:05:04;99116.19;;;18.78;100.00
19672;BME280;9983;51.114;13.788;2023-07-30T20:10:05;99124.44;;;18.83;100.00
19672;BME280;9983;51.114;13.788;2023-07-30T20:15:06;99114.59;;;18.36;100.00
19672;BME280;9983;51.114;13.788;2023-07-30T20:20:06;99116.53;;;18.58;100.00
19672;BME280;9983;51.114;13.788;2023-07-30T20:25:07;99120.22;;;18.64;100.00
19672;BME280;9983;51.114;13.788;2023-07-30T20:30:08;99123.72;;;18.53;100.00
19672;BME280;9983;51.114;13.788;2023-07-30T20:35:08;99129.19;;;18.76;100.00
19672;BME280;9983;51.114;13.788;2023-07-30T20:40:09;99125.44;;;18.24;100.00
19672;BME280;9983;51.114;13.788;2023-07-30T20:45:09;99127.41;;;18.93;100.00
19672;BME280;9983;51.114;13.788;2023-07-30T20:50:09;99127.88;;;18.67;100.00
19672;BME280;9983;51.114;13.788;2023-07-30T20:55:16;99124.44;;;18.60;100.00
19672;BME280;9983;51.114;13.788;2023-07-30T21:00:17;99119.22;;;18.47;100.00
19672;BME280;9983;51.114;13.788;2023-07-30T21:05:17;99120.91;;;18.94;100.00
19672;BME280;9983;51.114;13.788;2023-07-30T21:10:18;99119.50;;;18.80;100.00
19672;BME280;9983;51.114;13.788;2023-07-30T21:15:18;99118.22;;;18.83;100.00
19672;BME280;9983;51.114;13.788;2023-07-30T21:20:18;99118.72;;;18.50;100.00
19672;BME280;9983;51.114;13.788;2023-07-30T21:25:18;99118.56;;;18.10;100.00
19672;BME280;9983;51.114;13.788;2023-07-30T21:30:19;99116.44;;;18.65;100.00
19672;BME280;9983;51.114;13.788;2023-07-30T21:35:19;99113.63;;;18.18;100.00
19672;BME280;9983;51.114;13.788;2023-07-30T21:40:19;99118.09;;;18.89;100.00
19672;BME280;9983;51.114;13.788;2023-07-30T21:45:19;99115.19;;;18.38;100.00
19672;BME280;9983;51.114;13.788;2023-07-30T21:50:20;99117.81;;;18.33;100.00
19672;BME280;9983;51.114;13.788;2023-07-30T21:55:20;99115.94;;;18.68;100.00
19672;BME280;9983;51.114;13.788;2023-07-30T22:00:20;99121.25;;;18.75;100.00
19672;BME280;9983;51.114;13.788;2023-07-30T22:05:21;99117.34;;;18.59;100.00
19672;BME280;9983;51.114;13.788;2023-07-30T22:10:21;99112.88;;;18.76;100.00
19672;BME280;9983;51.114;13.788;2023-07-30T22:15:21;99106.84;;;18.86;100.00
19672;BME280;9983;51.114;13.788;2023-07-30T22:20:21;99113.78;;;19.17;100.00
19672;BME280;9983;51.114;13.788;2023-07-30T22:25:22;99113.72;;;18.88;100.00
19672;BME280;9983;51.114;13.788;2023-07-30T22:30:22;99108.66;;;18.57;100.00
19672;BME280;9983;51.114;13.788;2023-07-30T22:35:22;99113.22;;;18.03;100.00
19672;BME280;9983;51.114;13.788;2023-07-30T22:40:23;99111.69;;;18.49;100.00
19672;BME280;9983;51.114;13.788;2023-07-30T22:45:23;99109.06;;;18.54;100.00
19672;BME280;9983;51.114;13.788;2023-07-30T22:50:24;99108.06;;;18.13;100.00
19672;BME280;9983;51.114;13.788;2023-07-30T22:55:24;99111.97;;;18.17;100.00
19672;BME280;9983;51.114;13.788;2023-07-30T23:00:24;99115.28;;;17.78;100.00
19672;BME280;9983;51.114;13.788;2023-07-30T23:05:24;99108.91;;;17.84;100.00
19672;BME280;9983;51.114;13.788;2023-07-30T23:10:25;99111.44;;;17.97;100.00
19672;BME280;9983;51.114;13.788;2023-07-30T23:15:25;99114.78;;;18.11;100.00
19672;BME280;9983;51.114;13.788;2023-07-30T23:20:25;99115.22;;;17.96;100.00
19672;BME280;9983;51.114;13.788;2023-07-30T23:25:25;99110.28;;;17.75;100.00
19672;BME280;9983;51.114;13.788;2023-07-30T23:30:26;99106.00;;;17.19;100.00
19672;BME280;9983;51.114;13.788;2023-07-30T23:35:27;99106.53;;;17.76;100.00
19672;BME280;9983;51.114;13.788;2023-07-30T23:40:27;99095.88;;;17.63;100.00
19672;BME280;9983;51.114;13.788;2023-07-30T23:45:28;99097.22;;;17.54;100.00
19672;BME280;9983;51.114;13.788;2023-07-30T23:50:28;99094.78;;;17.82;100.00
19672;BME280;9983;51.114;13.788;2023-07-30T23:55:28;99097.06;;;17.67;100.00
